NWK361 YBAS-YBCS
Flight info
| Callsign | NWK361 |
|---|---|
| Flight time | N/A |
| Altitude | 39000 |
| Route | GAFER J64 NONUM |
| Aircraft | A319/M-SDE3FGHIRWY/LB1 |
Departure
| Time | 2026-04-28 03:48 |
|---|---|
| Airport | Alice Springs Airport (YBAS) |
Arrival
| Time | N/A |
|---|---|
| Airport | Cairns International Airport (YBCS) |
| Time | Latitude | Longitude | Altitude | Speed | Heading |
|---|---|---|---|---|---|
| 2026-04-28 03:21 | -23.80279 | 133.90130 | 1788 ft | 0 kts | 74° |
| 2026-04-28 03:39 | -23.80280 | 133.90126 | 1788 ft | 3 kts | 74° |
| 2026-04-28 03:39 | -23.80287 | 133.90100 | 1787 ft | 2 kts | 74° |
| 2026-04-28 03:39 | -23.80297 | 133.90078 | 1788 ft | 4 kts | 2° |
| 2026-04-28 03:40 | -23.80315 | 133.90091 | 1788 ft | 4 kts | 303° |
| 2026-04-28 03:40 | -23.80329 | 133.90116 | 1786 ft | 4 kts | 300° |
| 2026-04-28 03:40 | -23.80340 | 133.90135 | 1787 ft | 0 kts | 303° |
| 2026-04-28 03:43 | -23.80339 | 133.90134 | 1787 ft | 1 kts | 303° |
| 2026-04-28 03:43 | -23.80333 | 133.90124 | 1786 ft | 3 kts | 301° |
| 2026-04-28 03:43 | -23.80321 | 133.90101 | 1788 ft | 5 kts | 301° |
| 2026-04-28 03:43 | -23.80296 | 133.90054 | 1789 ft | 9 kts | 300° |
| 2026-04-28 03:44 | -23.80260 | 133.89986 | 1789 ft | 12 kts | 300° |
| 2026-04-28 03:44 | -23.80212 | 133.89896 | 1790 ft | 16 kts | 300° |
| 2026-04-28 03:44 | -23.80156 | 133.89791 | 1791 ft | 16 kts | 301° |
| 2026-04-28 03:44 | -23.80099 | 133.89686 | 1792 ft | 16 kts | 300° |
| 2026-04-28 03:45 | -23.80044 | 133.89583 | 1793 ft | 16 kts | 300° |
| 2026-04-28 03:45 | -23.79990 | 133.89482 | 1794 ft | 15 kts | 296° |
| 2026-04-28 03:45 | -23.79996 | 133.89383 | 1795 ft | 7 kts | 239° |
| 2026-04-28 03:45 | -23.79999 | 133.89377 | 1794 ft | 0 kts | 239° |
| 2026-04-28 03:46 | -23.80000 | 133.89377 | 1794 ft | 1 kts | 239° |
| 2026-04-28 03:46 | -23.80023 | 133.89334 | 1794 ft | 10 kts | 239° |
| 2026-04-28 03:46 | -23.80046 | 133.89291 | 1795 ft | 8 kts | 239° |
| 2026-04-28 03:46 | -23.80095 | 133.89324 | 1794 ft | 9 kts | 116° |
| 2026-04-28 03:47 | -23.80118 | 133.89372 | 1793 ft | 12 kts | 120° |
| 2026-04-28 03:47 | -23.80218 | 133.89557 | 1791 ft | 53 kts | 120° |
| 2026-04-28 03:47 | -23.80499 | 133.90081 | 1788 ft | 106 kts | 121° |
| 2026-04-28 03:47 | -23.80958 | 133.90936 | 1780 ft | 154 kts | 120° |
| 2026-04-28 03:48 | -23.81566 | 133.92056 | 1873 ft | 188 kts | 120° |
| 2026-04-28 03:48 | -23.82280 | 133.93346 | 2059 ft | 200 kts | 120° |
| 2026-04-28 03:48 | -23.82994 | 133.94661 | 2663 ft | 204 kts | 118° |
| 2026-04-28 03:48 | -23.83705 | 133.96030 | 3107 ft | 209 kts | 119° |
| 2026-04-28 03:49 | -23.84380 | 133.97456 | 3902 ft | 210 kts | 111° |
| 2026-04-28 03:49 | -23.84770 | 133.98997 | 4808 ft | 213 kts | 99° |
| 2026-04-28 03:49 | -23.84938 | 134.00613 | 5654 ft | 214 kts | 93° |
| 2026-04-28 03:49 | -23.84898 | 134.02235 | 6593 ft | 215 kts | 84° |
| 2026-04-28 03:50 | -23.84578 | 134.03832 | 7412 ft | 217 kts | 74° |
| 2026-04-28 03:50 | -23.83970 | 134.05369 | 8127 ft | 226 kts | 64° |
| 2026-04-28 03:50 | -23.83066 | 134.06820 | 8849 ft | 236 kts | 54° |
| 2026-04-28 03:50 | -23.81893 | 134.08099 | 9674 ft | 241 kts | 43° |
| 2026-04-28 03:51 | -23.80467 | 134.09100 | 10438 ft | 248 kts | 30° |
| 2026-04-28 03:51 | -23.78847 | 134.09772 | 11084 ft | 258 kts | 18° |
| 2026-04-28 03:51 | -23.77052 | 134.10095 | 11748 ft | 266 kts | 6° |
| 2026-04-28 03:51 | -23.75123 | 134.10013 | 12127 ft | 288 kts | 357° |
| 2026-04-28 03:52 | -23.73047 | 134.10013 | 12410 ft | 310 kts | 7° |
| 2026-04-28 03:52 | -23.70867 | 134.10489 | 12673 ft | 329 kts | 20° |
| 2026-04-28 03:52 | -23.68725 | 134.11516 | 12957 ft | 345 kts | 33° |
| 2026-04-28 03:52 | -23.66751 | 134.13076 | 13383 ft | 353 kts | 45° |
| 2026-04-28 03:53 | -23.65113 | 134.15068 | 14067 ft | 353 kts | 57° |
| 2026-04-28 03:53 | -23.63825 | 134.17353 | 14628 ft | 355 kts | 64° |
| 2026-04-28 03:53 | -23.62590 | 134.19716 | 15160 ft | 361 kts | 63° |
| 2026-04-28 03:53 | -23.61327 | 134.22095 | 15717 ft | 365 kts | 62° |
| 2026-04-28 03:54 | -23.60044 | 134.24500 | 16293 ft | 368 kts | 62° |
| 2026-04-28 03:54 | -23.58747 | 134.26924 | 16855 ft | 372 kts | 62° |
| 2026-04-28 03:54 | -23.57435 | 134.29376 | 17405 ft | 376 kts | 62° |
| 2026-04-28 03:54 | -23.56108 | 134.31857 | 17957 ft | 380 kts | 62° |
| 2026-04-28 03:55 | -23.54771 | 134.34360 | 18498 ft | 384 kts | 62° |
| 2026-04-28 03:55 | -23.53421 | 134.36888 | 18961 ft | 389 kts | 61° |
| 2026-04-28 03:55 | -23.52055 | 134.39447 | 19443 ft | 392 kts | 61° |
| 2026-04-28 03:55 | -23.50678 | 134.42027 | 19929 ft | 395 kts | 61° |
| 2026-04-28 03:56 | -23.49290 | 134.44626 | 20416 ft | 399 kts | 61° |
| 2026-04-28 03:56 | -23.47887 | 134.47256 | 20894 ft | 402 kts | 61° |
| 2026-04-28 03:56 | -23.46493 | 134.49868 | 21368 ft | 406 kts | 60° |
| 2026-04-28 03:56 | -23.45066 | 134.52540 | 21830 ft | 409 kts | 60° |
| 2026-04-28 03:57 | -23.43627 | 134.55229 | 22298 ft | 413 kts | 60° |
| 2026-04-28 03:57 | -23.42173 | 134.57940 | 22751 ft | 416 kts | 60° |
| 2026-04-28 03:57 | -23.40705 | 134.60674 | 23213 ft | 420 kts | 60° |
| 2026-04-28 03:57 | -23.39224 | 134.63431 | 23656 ft | 424 kts | 60° |
| 2026-04-28 03:58 | -23.37730 | 134.66211 | 24024 ft | 427 kts | 60° |
| 2026-04-28 03:58 | -23.36222 | 134.69017 | 24385 ft | 431 kts | 60° |
| 2026-04-28 03:58 | -23.34704 | 134.71841 | 24750 ft | 434 kts | 60° |
| 2026-04-28 03:58 | -23.33175 | 134.74687 | 25104 ft | 437 kts | 60° |
| 2026-04-28 03:59 | -23.31634 | 134.77552 | 25469 ft | 440 kts | 60° |
| 2026-04-28 03:59 | -23.30082 | 134.80437 | 25822 ft | 444 kts | 60° |
| 2026-04-28 03:59 | -23.28518 | 134.83341 | 26176 ft | 447 kts | 60° |
| 2026-04-28 03:59 | -23.26942 | 134.86266 | 26523 ft | 450 kts | 60° |
| 2026-04-28 04:00 | -23.25354 | 134.89214 | 26873 ft | 453 kts | 60° |
| 2026-04-28 04:00 | -23.23756 | 134.92181 | 27223 ft | 456 kts | 59° |
| 2026-04-28 04:00 | -23.22148 | 134.95161 | 27562 ft | 459 kts | 59° |
| 2026-04-28 04:00 | -23.20522 | 134.98164 | 27895 ft | 462 kts | 59° |
| 2026-04-28 04:01 | -23.18885 | 135.01187 | 28221 ft | 465 kts | 59° |
| 2026-04-28 04:01 | -23.17242 | 135.04229 | 28561 ft | 468 kts | 59° |
| 2026-04-28 04:01 | -23.15589 | 135.07290 | 28904 ft | 471 kts | 59° |
| 2026-04-28 04:01 | -23.13924 | 135.10369 | 29239 ft | 474 kts | 59° |
| 2026-04-28 04:02 | -23.12248 | 135.13469 | 29570 ft | 478 kts | 60° |
| 2026-04-28 04:02 | -23.10559 | 135.16589 | 29897 ft | 481 kts | 59° |
| 2026-04-28 04:02 | -23.08858 | 135.19728 | 30229 ft | 484 kts | 59° |
| 2026-04-28 04:02 | -23.07165 | 135.22842 | 30489 ft | 486 kts | 60° |
| 2026-04-28 04:03 | -23.05437 | 135.26021 | 30788 ft | 488 kts | 60° |
| 2026-04-28 04:03 | -23.03704 | 135.29206 | 31086 ft | 490 kts | 60° |
| 2026-04-28 04:03 | -23.01965 | 135.32404 | 31392 ft | 492 kts | 60° |
| 2026-04-28 04:03 | -23.00221 | 135.35609 | 31672 ft | 494 kts | 60° |
| 2026-04-28 04:04 | -22.98470 | 135.38822 | 32021 ft | 494 kts | 60° |
| 2026-04-28 04:04 | -22.96719 | 135.42033 | 32437 ft | 493 kts | 60° |
| 2026-04-28 04:04 | -22.94977 | 135.45233 | 32859 ft | 492 kts | 61° |
| 2026-04-28 04:04 | -22.93241 | 135.48420 | 33272 ft | 491 kts | 61° |
| 2026-04-28 04:05 | -22.91502 | 135.51611 | 33681 ft | 490 kts | 61° |
| 2026-04-28 04:05 | -22.89768 | 135.54790 | 34102 ft | 489 kts | 61° |
| 2026-04-28 04:05 | -22.88035 | 135.57964 | 34454 ft | 489 kts | 61° |
| 2026-04-28 04:05 | -22.86301 | 135.61138 | 34771 ft | 489 kts | 61° |
| 2026-04-28 04:06 | -22.84564 | 135.64313 | 35062 ft | 490 kts | 61° |
| 2026-04-28 04:06 | -22.82822 | 135.67489 | 35344 ft | 491 kts | 61° |
| 2026-04-28 04:06 | -22.81076 | 135.70676 | 35630 ft | 492 kts | 61° |
| 2026-04-28 04:06 | -22.79352 | 135.73822 | 35911 ft | 492 kts | 61° |
| 2026-04-28 04:07 | -22.77598 | 135.77012 | 36186 ft | 493 kts | 61° |
| 2026-04-28 04:07 | -22.75844 | 135.80207 | 36451 ft | 494 kts | 61° |
| 2026-04-28 04:07 | -22.74657 | 135.82371 | 36627 ft | 494 kts | 61° |
| 2026-04-28 04:07 | -22.72329 | 135.86618 | 36983 ft | 495 kts | 61° |
| 2026-04-28 04:08 | -22.70565 | 135.89828 | 37238 ft | 496 kts | 61° |
| 2026-04-28 04:08 | -22.68801 | 135.93038 | 37496 ft | 496 kts | 61° |
| 2026-04-28 04:08 | -22.67032 | 135.96252 | 37748 ft | 497 kts | 60° |
| 2026-04-28 04:08 | -22.65259 | 135.99464 | 37996 ft | 497 kts | 60° |
| 2026-04-28 04:09 | -22.63487 | 136.02672 | 38232 ft | 498 kts | 60° |
| 2026-04-28 04:09 | -22.61708 | 136.05891 | 38473 ft | 498 kts | 60° |
| 2026-04-28 04:09 | -22.59926 | 136.09118 | 38693 ft | 499 kts | 60° |
| 2026-04-28 04:09 | -22.58146 | 136.12344 | 38893 ft | 499 kts | 60° |
| 2026-04-28 04:10 | -22.56368 | 136.15569 | 39036 ft | 500 kts | 60° |
| 2026-04-28 04:10 | -22.54582 | 136.18807 | 39082 ft | 502 kts | 60° |
| 2026-04-28 04:10 | -22.50990 | 136.25291 | 39083 ft | 503 kts | 61° |
| 2026-04-28 04:11 | -22.47394 | 136.31777 | 39078 ft | 503 kts | 61° |
| 2026-04-28 04:11 | -22.43798 | 136.38267 | 39080 ft | 504 kts | 61° |
| 2026-04-28 04:12 | -22.40217 | 136.44720 | 39075 ft | 504 kts | 61° |
| 2026-04-28 04:12 | -22.36603 | 136.51205 | 39075 ft | 504 kts | 61° |
| 2026-04-28 04:13 | -22.32993 | 136.57689 | 39076 ft | 504 kts | 61° |
| 2026-04-28 04:13 | -22.29372 | 136.64176 | 39080 ft | 504 kts | 61° |
| 2026-04-28 04:14 | -22.25747 | 136.70670 | 39077 ft | 505 kts | 61° |
| 2026-04-28 04:14 | -22.22124 | 136.77162 | 39076 ft | 505 kts | 61° |
| 2026-04-28 04:15 | -22.18492 | 136.83657 | 39074 ft | 505 kts | 61° |
| 2026-04-28 04:16 | -22.13049 | 136.93394 | 39085 ft | 505 kts | 61° |
| 2026-04-28 04:16 | -22.09410 | 136.99880 | 39084 ft | 505 kts | 61° |
| 2026-04-28 04:17 | -22.05769 | 137.06361 | 39087 ft | 505 kts | 61° |
| 2026-04-28 04:17 | -22.02124 | 137.12843 | 39082 ft | 506 kts | 61° |
| 2026-04-28 04:18 | -21.98467 | 137.19330 | 39082 ft | 506 kts | 61° |
| 2026-04-28 04:18 | -21.94819 | 137.25807 | 39077 ft | 506 kts | 62° |
| 2026-04-28 04:19 | -21.91168 | 137.32288 | 39077 ft | 506 kts | 62° |
| 2026-04-28 04:19 | -21.87510 | 137.38755 | 39071 ft | 505 kts | 61° |
| 2026-04-28 04:20 | -21.83867 | 137.45171 | 39072 ft | 505 kts | 62° |
| 2026-04-28 04:20 | -21.80206 | 137.51633 | 39072 ft | 506 kts | 62° |
| 2026-04-28 04:21 | -21.76548 | 137.58103 | 39071 ft | 506 kts | 62° |
| 2026-04-28 04:21 | -21.72880 | 137.64566 | 39067 ft | 506 kts | 62° |
| 2026-04-28 04:22 | -21.69195 | 137.71041 | 39066 ft | 507 kts | 62° |
| 2026-04-28 04:22 | -21.65518 | 137.77507 | 39064 ft | 507 kts | 62° |
| 2026-04-28 04:23 | -21.61840 | 137.83965 | 39060 ft | 507 kts | 62° |
| 2026-04-28 04:23 | -21.58153 | 137.90424 | 39058 ft | 507 kts | 62° |
| 2026-04-28 04:24 | -21.54459 | 137.96877 | 39054 ft | 507 kts | 62° |
| 2026-04-28 04:24 | -21.50786 | 138.03289 | 39055 ft | 507 kts | 62° |
| 2026-04-28 04:25 | -21.47088 | 138.09743 | 39057 ft | 508 kts | 62° |
| 2026-04-28 04:25 | -21.43386 | 138.16198 | 39052 ft | 508 kts | 62° |
| 2026-04-28 04:26 | -21.39681 | 138.22653 | 39055 ft | 508 kts | 62° |
| 2026-04-28 04:26 | -21.35968 | 138.29098 | 39049 ft | 507 kts | 62° |
| 2026-04-28 04:27 | -21.32259 | 138.35538 | 39053 ft | 507 kts | 62° |
| 2026-04-28 04:27 | -21.28552 | 138.41970 | 39054 ft | 507 kts | 62° |
| 2026-04-28 04:28 | -21.24844 | 138.48393 | 39059 ft | 506 kts | 61° |
| 2026-04-28 04:28 | -21.21144 | 138.54805 | 39056 ft | 505 kts | 61° |
| 2026-04-28 04:29 | -21.17445 | 138.61203 | 39052 ft | 505 kts | 61° |
| 2026-04-28 04:29 | -21.13738 | 138.67587 | 39045 ft | 504 kts | 61° |
| 2026-04-28 04:30 | -21.10058 | 138.73925 | 39047 ft | 504 kts | 61° |
| 2026-04-28 04:30 | -21.06367 | 138.80289 | 39043 ft | 503 kts | 61° |
| 2026-04-28 04:31 | -21.02676 | 138.86645 | 39049 ft | 502 kts | 61° |
| 2026-04-28 04:31 | -20.98976 | 138.92984 | 39047 ft | 502 kts | 60° |
| 2026-04-28 04:32 | -20.95286 | 138.99312 | 39048 ft | 501 kts | 60° |
| 2026-04-28 04:32 | -20.91600 | 139.05635 | 39049 ft | 500 kts | 60° |
| 2026-04-28 04:33 | -20.87918 | 139.11949 | 39027 ft | 502 kts | 62° |
| 2026-04-28 04:33 | -20.84195 | 139.18325 | 39023 ft | 507 kts | 62° |
| 2026-04-28 04:34 | -20.80454 | 139.24713 | 39033 ft | 508 kts | 61° |
| 2026-04-28 04:34 | -20.76700 | 139.31115 | 39046 ft | 509 kts | 61° |
| 2026-04-28 04:35 | -20.72943 | 139.37524 | 39063 ft | 509 kts | 61° |
| 2026-04-28 04:35 | -20.69820 | 139.42858 | 39071 ft | 509 kts | 61° |
| 2026-04-28 04:36 | -20.66046 | 139.49265 | 39075 ft | 510 kts | 61° |
| 2026-04-28 04:36 | -20.61603 | 139.56686 | 39078 ft | 510 kts | 60° |
| 2026-04-28 04:37 | -20.58376 | 139.62017 | 39074 ft | 510 kts | 60° |
| 2026-04-28 04:37 | -20.54523 | 139.68381 | 39066 ft | 510 kts | 60° |
| 2026-04-28 04:38 | -20.50711 | 139.74700 | 39053 ft | 510 kts | 60° |
| 2026-04-28 04:38 | -20.46866 | 139.81072 | 39041 ft | 510 kts | 60° |
| 2026-04-28 04:39 | -20.43645 | 139.86403 | 39040 ft | 510 kts | 60° |